PWSweather.com
Personal Weather Stations
Station Observations
SHAHALMS1
Eftra, Falkenberg, HA

EftraFalkenberg, HA

Lat: 56.85, Lon: 12.65

Elevation: 140

Station Type:

http://hem.passagen.se/risarp101

High Low Average
Temperature 64.4°F18.0°C 41.7°F5.4°C 52.0°F11.1°C
Dew Point 39.8°F4.3°C 26.0°F-3.3°C 32.2°F0.1°C
Winds 14.9 mph 24.0 kmh 5.6 mph 9.0 kmh 10.0 mph E16.1 kmh E
Wind Gusts 31.5 mph50.7 kmh 11.8 mph19.0 kmh 19.0 mph30.6 kmh
Humidity 56% 37% 47%
Pressure 29.80 in1009.1 mb 29.62 in1003.0 mb -
Precipitation 0.00 in0.0 mm - -
Hour Temp Dew Point Humidity Winds Wind Gusts Pressure Precip Precip Rate Daily Precip Total
12:00 AM 47.1°F8.4°C 30.4°F-0.9°C 52% 7.4 mph E11.9 kmh E 15.4 mph24.8 kmh 29.71 in1006.1 mb 0.00 in0.0 mm 0.00 in0.0 mm 0.00 in0.0 mm
12:31 AM 46.8°F8.2°C 30.0°F-1.1°C 52% 7.9 mph E12.7 kmh E 15.0 mph24.1 kmh 29.71 in1006.1 mb 0.00 in0.0 mm 0.00 in0.0 mm 0.00 in0.0 mm
12:45 AM 46.8°F8.2°C 29.6°F-1.3°C 51% 8.0 mph E12.9 kmh E 15.0 mph24.1 kmh 29.71 in1006.1 mb 0.00 in0.0 mm 0.00 in0.0 mm 0.00 in0.0 mm
01:00 AM 46.9°F8.3°C 29.7°F-1.3°C 51% 7.4 mph E11.9 kmh E 14.7 mph23.7 kmh 29.71 in1006.1 mb 0.00 in0.0 mm 0.00 in0.0 mm 0.00 in0.0 mm
01:15 AM 46.2°F7.9°C 29.1°F-1.6°C 51% 7.4 mph ENE11.9 kmh ENE 14.0 mph22.5 kmh 29.68 in1005.1 mb 0.00 in0.0 mm 0.00 in0.0 mm 0.00 in0.0 mm
01:30 AM 45.5°F7.5°C 28.9°F-1.7°C 52% 7.5 mph E12.1 kmh E 15.7 mph25.3 kmh 29.68 in1005.1 mb 0.00 in0.0 mm 0.00 in0.0 mm 0.00 in0.0 mm
01:45 AM 44.6°F7.0°C 28.5°F-1.9°C 53% 7.0 mph E11.3 kmh E 13.6 mph21.9 kmh 29.71 in1006.1 mb 0.00 in0.0 mm 0.00 in0.0 mm 0.00 in0.0 mm
02:00 AM 44.2°F6.8°C 28.2°F-2.1°C 53% 7.0 mph E11.3 kmh E 14.0 mph22.5 kmh 29.71 in1006.1 mb 0.00 in0.0 mm 0.00 in0.0 mm 0.00 in0.0 mm
02:15 AM 43.5°F6.4°C 28.0°F-2.2°C 54% 5.6 mph ENE9.0 kmh ENE 11.8 mph19.0 kmh 29.68 in1005.1 mb 0.00 in0.0 mm 0.00 in0.0 mm 0.00 in0.0 mm
02:30 AM 43.0°F6.1°C 27.9°F-2.3°C 55% 6.1 mph E9.8 kmh E 14.0 mph22.5 kmh 29.68 in1005.1 mb 0.00 in0.0 mm 0.00 in0.0 mm 0.00 in0.0 mm
02:45 AM 42.8°F6.0°C 27.7°F-2.4°C 55% 7.5 mph E12.1 kmh E 12.9 mph20.8 kmh 29.68 in1005.1 mb 0.00 in0.0 mm 0.00 in0.0 mm 0.00 in0.0 mm
03:00 AM 42.4°F5.8°C 27.8°F-2.3°C 56% 6.5 mph E10.5 kmh E 11.8 mph19.0 kmh 29.68 in1005.1 mb 0.00 in0.0 mm 0.00 in0.0 mm 0.00 in0.0 mm
03:15 AM 42.4°F5.8°C 27.8°F-2.3°C 56% 8.0 mph E12.9 kmh E 16.1 mph25.9 kmh 29.68 in1005.1 mb 0.00 in0.0 mm 0.00 in0.0 mm 0.00 in0.0 mm
03:30 AM 42.6°F5.9°C 28.0°F-2.2°C 56% 9.2 mph E14.8 kmh E 17.5 mph28.2 kmh 29.68 in1005.1 mb 0.00 in0.0 mm 0.00 in0.0 mm 0.00 in0.0 mm
03:45 AM 42.4°F5.8°C 27.4°F-2.6°C 55% 9.4 mph E15.1 kmh E 15.4 mph24.8 kmh 29.68 in1005.1 mb 0.00 in0.0 mm 0.00 in0.0 mm 0.00 in0.0 mm
04:00 AM 42.4°F5.8°C 27.4°F-2.6°C 55% 9.7 mph E15.6 kmh E 16.1 mph25.9 kmh 29.68 in1005.1 mb 0.00 in0.0 mm 0.00 in0.0 mm 0.00 in0.0 mm
04:15 AM 42.1°F5.6°C 27.1°F-2.7°C 55% 8.8 mph E14.2 kmh E 16.1 mph25.9 kmh 29.65 in1004.1 mb 0.00 in0.0 mm 0.00 in0.0 mm 0.00 in0.0 mm
04:30 AM 42.1°F5.6°C 27.1°F-2.7°C 55% 7.7 mph E12.4 kmh E 15.7 mph25.3 kmh 29.65 in1004.1 mb 0.00 in0.0 mm 0.00 in0.0 mm 0.00 in0.0 mm
04:45 AM 41.9°F5.5°C 26.4°F-3.1°C 54% 8.8 mph E14.2 kmh E 14.7 mph23.7 kmh 29.65 in1004.1 mb 0.00 in0.0 mm 0.00 in0.0 mm 0.00 in0.0 mm
05:00 AM 41.7°F5.4°C 26.3°F-3.2°C 54% 8.3 mph E13.4 kmh E 16.1 mph25.9 kmh 29.65 in1004.1 mb 0.00 in0.0 mm 0.00 in0.0 mm 0.00 in0.0 mm
05:15 AM 41.9°F5.5°C 26.4°F-3.1°C 54% 7.9 mph E12.7 kmh E 14.7 mph23.7 kmh 29.62 in1003.0 mb 0.00 in0.0 mm 0.00 in0.0 mm 0.00 in0.0 mm
05:30 AM 41.9°F5.5°C 26.0°F-3.3°C 53% 8.5 mph E13.7 kmh E 14.0 mph22.5 kmh 29.62 in1003.0 mb 0.00 in0.0 mm 0.00 in0.0 mm 0.00 in0.0 mm
05:45 AM 42.1°F5.6°C 26.2°F-3.2°C 53% 9.1 mph E14.6 kmh E 17.5 mph28.2 kmh 29.65 in1004.1 mb 0.00 in0.0 mm 0.00 in0.0 mm 0.00 in0.0 mm
06:00 AM 42.6°F5.9°C 26.7°F-2.9°C 53% 9.1 mph E14.6 kmh E 17.2 mph27.7 kmh 29.65 in1004.1 mb 0.00 in0.0 mm 0.00 in0.0 mm 0.00 in0.0 mm
06:15 AM 43.3°F6.3°C 26.9°F-2.8°C 52% 12.1 mph E19.5 kmh E 24.3 mph39.1 kmh 29.65 in1004.1 mb 0.00 in0.0 mm 0.00 in0.0 mm 0.00 in0.0 mm
06:30 AM 43.9°F6.6°C 27.4°F-2.6°C 52% 14.6 mph E23.5 kmh E 27.2 mph43.8 kmh 29.65 in1004.1 mb 0.00 in0.0 mm 0.00 in0.0 mm 0.00 in0.0 mm
06:45 AM 44.2°F6.8°C 27.2°F-2.7°C 51% 14.2 mph E22.9 kmh E 30.1 mph48.4 kmh 29.62 in1003.0 mb 0.00 in0.0 mm 0.00 in0.0 mm 0.00 in0.0 mm
07:00 AM 44.8°F7.1°C 27.7°F-2.4°C 51% 12.0 mph E19.3 kmh E 24.3 mph39.1 kmh 29.62 in1003.0 mb 0.00 in0.0 mm 0.00 in0.0 mm 0.00 in0.0 mm
07:15 AM 45.3°F7.4°C 27.8°F-2.3°C 50% 13.2 mph E21.2 kmh E 25.1 mph40.4 kmh 29.65 in1004.1 mb 0.00 in0.0 mm 0.00 in0.0 mm 0.00 in0.0 mm
07:30 AM 45.9°F7.7°C 28.3°F-2.1°C 50% 12.5 mph E20.1 kmh E 23.6 mph38.0 kmh 29.65 in1004.1 mb 0.00 in0.0 mm 0.00 in0.0 mm 0.00 in0.0 mm
07:45 AM 46.2°F7.9°C 28.6°F-1.9°C 50% 10.2 mph E16.4 kmh E 17.5 mph28.2 kmh 29.62 in1003.0 mb 0.00 in0.0 mm 0.00 in0.0 mm 0.00 in0.0 mm
08:00 AM 47.8°F8.8°C 29.6°F-1.3°C 49% 13.2 mph E21.2 kmh E 24.7 mph39.8 kmh 29.65 in1004.1 mb 0.00 in0.0 mm 0.00 in0.0 mm 0.00 in0.0 mm
08:17 AM 48.6°F9.2°C 30.2°F-1.0°C 49% 11.1 mph E17.9 kmh E 20.0 mph32.2 kmh 29.65 in1004.1 mb 0.00 in0.0 mm 0.00 in0.0 mm 0.00 in0.0 mm
08:31 AM 49.8°F9.9°C 30.9°F-0.6°C 48% 12.8 mph E20.6 kmh E 20.8 mph33.5 kmh 29.65 in1004.1 mb 0.00 in0.0 mm 0.00 in0.0 mm 0.00 in0.0 mm
08:45 AM 50.4°F10.2°C 30.9°F-0.6°C 47% 13.4 mph E21.6 kmh E 20.4 mph32.8 kmh 29.65 in1004.1 mb 0.00 in0.0 mm 0.00 in0.0 mm 0.00 in0.0 mm
09:00 AM 50.2°F10.1°C 30.7°F-0.7°C 47% 12.2 mph E19.6 kmh E 20.8 mph33.5 kmh 29.65 in1004.1 mb 0.00 in0.0 mm 0.00 in0.0 mm 0.00 in0.0 mm
09:15 AM 51.4°F10.8°C 31.9°F-0.1°C 47% 12.9 mph E20.8 kmh E 24.3 mph39.1 kmh 29.65 in1004.1 mb 0.00 in0.0 mm 0.00 in0.0 mm 0.00 in0.0 mm
09:30 AM 52.9°F11.6°C 32.6°F0.3°C 46% 13.6 mph E21.9 kmh E 26.1 mph42.0 kmh 29.65 in1004.1 mb 0.00 in0.0 mm 0.00 in0.0 mm 0.00 in0.0 mm
09:45 AM 54.0°F12.2°C 33.6°F0.9°C 46% 11.5 mph E18.5 kmh E 21.5 mph34.6 kmh 29.65 in1004.1 mb 0.00 in0.0 mm 0.00 in0.0 mm 0.00 in0.0 mm
10:00 AM 54.5°F12.5°C 34.1°F1.2°C 46% 12.5 mph E20.1 kmh E 22.9 mph36.9 kmh 29.65 in1004.1 mb 0.00 in0.0 mm 0.00 in0.0 mm 0.00 in0.0 mm
10:15 AM 55.0°F12.8°C 34.1°F1.2°C 45% 14.9 mph E24.0 kmh E 31.5 mph50.7 kmh 29.65 in1004.1 mb 0.00 in0.0 mm 0.00 in0.0 mm 0.00 in0.0 mm
10:30 AM 55.8°F13.2°C 34.7°F1.5°C 45% 13.6 mph E21.9 kmh E 26.8 mph43.1 kmh 29.65 in1004.1 mb 0.00 in0.0 mm 0.00 in0.0 mm 0.00 in0.0 mm
10:45 AM 56.5°F13.6°C 34.8°F1.6°C 44% 12.1 mph E19.5 kmh E 24.3 mph39.1 kmh 29.65 in1004.1 mb 0.00 in0.0 mm 0.00 in0.0 mm 0.00 in0.0 mm
11:00 AM 57.2°F14.0°C 35.5°F1.9°C 44% 12.5 mph E20.1 kmh E 21.5 mph34.6 kmh 29.65 in1004.1 mb 0.00 in0.0 mm 0.00 in0.0 mm 0.00 in0.0 mm
11:15 AM 58.1°F14.5°C 36.3°F2.4°C 44% 12.7 mph E20.4 kmh E 26.8 mph43.1 kmh 29.65 in1004.1 mb 0.00 in0.0 mm 0.00 in0.0 mm 0.00 in0.0 mm
11:30 AM 58.8°F14.9°C 36.4°F2.4°C 43% 12.3 mph E19.8 kmh E 24.7 mph39.8 kmh 29.65 in1004.1 mb 0.00 in0.0 mm 0.00 in0.0 mm 0.00 in0.0 mm
11:45 AM 59.5°F15.3°C 37.0°F2.8°C 43% 12.9 mph E20.8 kmh E 21.1 mph34.0 kmh 29.65 in1004.1 mb 0.00 in0.0 mm 0.00 in0.0 mm 0.00 in0.0 mm
12:00 PM 60.3°F15.7°C 37.7°F3.2°C 43% 10.9 mph E17.5 kmh E 24.3 mph39.1 kmh 29.68 in1005.1 mb 0.00 in0.0 mm 0.00 in0.0 mm 0.00 in0.0 mm
12:15 PM 60.6°F15.9°C 36.8°F2.7°C 41% 12.9 mph E20.8 kmh E 23.6 mph38.0 kmh 29.68 in1005.1 mb 0.00 in0.0 mm 0.00 in0.0 mm 0.00 in0.0 mm
12:30 PM 61.0°F16.1°C 37.7°F3.2°C 42% 11.5 mph E18.5 kmh E 19.7 mph31.7 kmh 29.65 in1004.1 mb 0.00 in0.0 mm 0.00 in0.0 mm 0.00 in0.0 mm
12:45 PM 61.7°F16.5°C 38.4°F3.6°C 42% 10.2 mph E16.4 kmh E 19.7 mph31.7 kmh 29.68 in1005.1 mb 0.00 in0.0 mm 0.00 in0.0 mm 0.00 in0.0 mm
01:00 PM 62.2°F16.8°C 38.2°F3.4°C 41% 11.5 mph E18.5 kmh E 21.1 mph34.0 kmh 29.68 in1005.1 mb 0.00 in0.0 mm 0.00 in0.0 mm 0.00 in0.0 mm
01:15 PM 62.8°F17.1°C 38.7°F3.7°C 41% 14.5 mph E23.3 kmh E 27.6 mph44.4 kmh 29.68 in1005.1 mb 0.00 in0.0 mm 0.00 in0.0 mm 0.00 in0.0 mm
01:30 PM 63.1°F17.3°C 39.0°F3.9°C 41% 14.5 mph E23.3 kmh E 26.5 mph42.6 kmh 29.65 in1004.1 mb 0.00 in0.0 mm 0.00 in0.0 mm 0.00 in0.0 mm
01:45 PM 63.5°F17.5°C 38.7°F3.7°C 40% 11.0 mph E17.7 kmh E 24.7 mph39.8 kmh 29.65 in1004.1 mb 0.00 in0.0 mm 0.00 in0.0 mm 0.00 in0.0 mm
02:00 PM 63.9°F17.7°C 39.1°F3.9°C 40% 12.7 mph E20.4 kmh E 26.8 mph43.1 kmh 29.65 in1004.1 mb 0.00 in0.0 mm 0.00 in0.0 mm 0.00 in0.0 mm
02:15 PM 64.0°F17.8°C 39.8°F4.3°C 41% 11.8 mph E19.0 kmh E 20.4 mph32.8 kmh 29.65 in1004.1 mb 0.00 in0.0 mm 0.00 in0.0 mm 0.00 in0.0 mm
02:30 PM 64.0°F17.8°C 38.6°F3.7°C 39% 12.1 mph E19.5 kmh E 24.7 mph39.8 kmh 29.65 in1004.1 mb 0.00 in0.0 mm 0.00 in0.0 mm 0.00 in0.0 mm
02:45 PM 64.2°F17.9°C 38.7°F3.7°C 39% 9.5 mph E15.3 kmh E 17.2 mph27.7 kmh 29.65 in1004.1 mb 0.00 in0.0 mm 0.00 in0.0 mm 0.00 in0.0 mm
03:00 PM 64.4°F18.0°C 38.9°F3.8°C 39% 9.4 mph E15.1 kmh E 20.8 mph33.5 kmh 29.65 in1004.1 mb 0.00 in0.0 mm 0.00 in0.0 mm 0.00 in0.0 mm
03:15 PM 64.4°F18.0°C 37.5°F3.1°C 37% 11.9 mph E19.2 kmh E 23.6 mph38.0 kmh 29.65 in1004.1 mb 0.00 in0.0 mm 0.00 in0.0 mm 0.00 in0.0 mm
03:30 PM 64.4°F18.0°C 37.5°F3.1°C 37% 11.2 mph E18.0 kmh E 20.8 mph33.5 kmh 29.65 in1004.1 mb 0.00 in0.0 mm 0.00 in0.0 mm 0.00 in0.0 mm
03:45 PM 64.0°F17.8°C 37.9°F3.3°C 38% 10.6 mph E17.1 kmh E 21.1 mph34.0 kmh 29.65 in1004.1 mb 0.00 in0.0 mm 0.00 in0.0 mm 0.00 in0.0 mm
04:00 PM 64.0°F17.8°C 37.2°F2.9°C 37% 11.2 mph E18.0 kmh E 19.7 mph31.7 kmh 29.65 in1004.1 mb 0.00 in0.0 mm 0.00 in0.0 mm 0.00 in0.0 mm
04:33 PM 63.5°F17.5°C 36.7°F2.6°C 37% 11.9 mph E19.2 kmh E 23.6 mph38.0 kmh 29.65 in1004.1 mb 0.00 in0.0 mm 0.00 in0.0 mm 0.00 in0.0 mm
04:45 PM 63.1°F17.3°C 36.4°F2.4°C 37% 11.3 mph E18.2 kmh E 20.8 mph33.5 kmh 29.68 in1005.1 mb 0.00 in0.0 mm 0.00 in0.0 mm 0.00 in0.0 mm
05:00 PM 62.8°F17.1°C 36.8°F2.7°C 38% 11.9 mph E19.2 kmh E 28.3 mph45.5 kmh 29.68 in1005.1 mb 0.00 in0.0 mm 0.00 in0.0 mm 0.00 in0.0 mm
05:15 PM 62.2°F16.8°C 36.3°F2.4°C 38% 10.2 mph E16.4 kmh E 22.2 mph35.7 kmh 29.68 in1005.1 mb 0.00 in0.0 mm 0.00 in0.0 mm 0.00 in0.0 mm
05:30 PM 61.3°F16.3°C 36.8°F2.7°C 40% 9.1 mph E14.6 kmh E 16.8 mph27.0 kmh 29.68 in1005.1 mb 0.00 in0.0 mm 0.00 in0.0 mm 0.00 in0.0 mm
05:45 PM 60.3°F15.7°C 36.4°F2.4°C 41% 8.3 mph E13.4 kmh E 16.8 mph27.0 kmh 29.68 in1005.1 mb 0.00 in0.0 mm 0.00 in0.0 mm 0.00 in0.0 mm
06:00 PM 59.0°F15.0°C 35.9°F2.2°C 42% 8.0 mph E12.9 kmh E 14.0 mph22.5 kmh 29.68 in1005.1 mb 0.00 in0.0 mm 0.00 in0.0 mm 0.00 in0.0 mm
06:15 PM 58.1°F14.5°C 35.7°F2.1°C 43% 8.2 mph E13.2 kmh E 17.5 mph28.2 kmh 29.71 in1006.1 mb 0.00 in0.0 mm 0.00 in0.0 mm 0.00 in0.0 mm
06:30 PM 57.2°F14.0°C 35.5°F1.9°C 44% 9.4 mph E15.1 kmh E 19.3 mph31.1 kmh 29.71 in1006.1 mb 0.00 in0.0 mm 0.00 in0.0 mm 0.00 in0.0 mm
06:45 PM 56.3°F13.5°C 34.6°F1.4°C 44% 9.6 mph E15.4 kmh E 16.8 mph27.0 kmh 29.71 in1006.1 mb 0.00 in0.0 mm 0.00 in0.0 mm 0.00 in0.0 mm
07:00 PM 55.4°F13.0°C 34.4°F1.3°C 45% 8.7 mph E14.0 kmh E 15.4 mph24.8 kmh 29.68 in1005.1 mb 0.00 in0.0 mm 0.00 in0.0 mm 0.00 in0.0 mm
07:15 PM 54.5°F12.5°C 34.1°F1.2°C 46% 9.0 mph E14.5 kmh E 16.8 mph27.0 kmh 29.71 in1006.1 mb 0.00 in0.0 mm 0.00 in0.0 mm 0.00 in0.0 mm
07:30 PM 54.0°F12.2°C 34.2°F1.2°C 47% 9.7 mph E15.6 kmh E 17.5 mph28.2 kmh 29.71 in1006.1 mb 0.00 in0.0 mm 0.00 in0.0 mm 0.00 in0.0 mm
07:45 PM 53.2°F11.8°C 34.0°F1.1°C 48% 9.4 mph E15.1 kmh E 16.5 mph26.6 kmh 29.74 in1007.1 mb 0.00 in0.0 mm 0.00 in0.0 mm 0.00 in0.0 mm
08:00 PM 52.7°F11.5°C 34.1°F1.2°C 49% 11.5 mph E18.5 kmh E 19.7 mph31.7 kmh 29.74 in1007.1 mb 0.00 in0.0 mm 0.00 in0.0 mm 0.00 in0.0 mm
08:15 PM 52.2°F11.2°C 33.6°F0.9°C 49% 10.8 mph E17.4 kmh E 19.7 mph31.7 kmh 29.74 in1007.1 mb 0.00 in0.0 mm 0.00 in0.0 mm 0.00 in0.0 mm
08:30 PM 51.3°F10.7°C 32.7°F0.4°C 49% 11.5 mph E18.5 kmh E 19.3 mph31.1 kmh 29.74 in1007.1 mb 0.00 in0.0 mm 0.00 in0.0 mm 0.00 in0.0 mm
08:45 PM 50.7°F10.4°C 32.2°F0.1°C 49% 12.2 mph E19.6 kmh E 20.8 mph33.5 kmh 29.74 in1007.1 mb 0.00 in0.0 mm 0.00 in0.0 mm 0.00 in0.0 mm
09:00 PM 50.0°F10.0°C 31.6°F-0.2°C 49% 11.7 mph E18.8 kmh E 21.1 mph34.0 kmh 29.74 in1007.1 mb 0.00 in0.0 mm 0.00 in0.0 mm 0.00 in0.0 mm
09:15 PM 49.1°F9.5°C 30.7°F-0.7°C 49% 11.7 mph E18.8 kmh E 22.5 mph36.2 kmh 29.77 in1008.1 mb 0.00 in0.0 mm 0.00 in0.0 mm 0.00 in0.0 mm
09:30 PM 48.4°F9.1°C 30.1°F-1.1°C 49% 8.4 mph E13.5 kmh E 16.5 mph26.6 kmh 29.77 in1008.1 mb 0.00 in0.0 mm 0.00 in0.0 mm 0.00 in0.0 mm
09:45 PM 48.0°F8.9°C 29.7°F-1.3°C 49% 8.7 mph E14.0 kmh E 15.4 mph24.8 kmh 29.77 in1008.1 mb 0.00 in0.0 mm 0.00 in0.0 mm 0.00 in0.0 mm
10:00 PM 47.7°F8.7°C 29.4°F-1.4°C 49% 9.2 mph E14.8 kmh E 17.2 mph27.7 kmh 29.77 in1008.1 mb 0.00 in0.0 mm 0.00 in0.0 mm 0.00 in0.0 mm
10:15 PM 47.1°F8.4°C 29.4°F-1.4°C 50% 9.2 mph E14.8 kmh E 17.5 mph28.2 kmh 29.80 in1009.1 mb 0.00 in0.0 mm 0.00 in0.0 mm 0.00 in0.0 mm
10:30 PM 46.9°F8.3°C 29.2°F-1.6°C 50% 8.2 mph E13.2 kmh E 12.9 mph20.8 kmh 29.77 in1008.1 mb 0.00 in0.0 mm 0.00 in0.0 mm 0.00 in0.0 mm
10:45 PM 46.4°F8.0°C 28.8°F-1.8°C 50% 8.1 mph E13.0 kmh E 15.7 mph25.3 kmh 29.80 in1009.1 mb 0.00 in0.0 mm 0.00 in0.0 mm 0.00 in0.0 mm
11:00 PM 45.9°F7.7°C 28.7°F-1.8°C 51% 6.7 mph E10.8 kmh E 15.7 mph25.3 kmh 29.77 in1008.1 mb 0.00 in0.0 mm 0.00 in0.0 mm 0.00 in0.0 mm
11:15 PM 45.3°F7.4°C 28.2°F-2.1°C 51% 6.8 mph ENE10.9 kmh ENE 13.6 mph21.9 kmh 29.80 in1009.1 mb 0.00 in0.0 mm 0.00 in0.0 mm 0.00 in0.0 mm
11:30 PM 45.3°F7.4°C 28.7°F-1.8°C 52% 6.5 mph E10.5 kmh E 16.1 mph25.9 kmh 29.77 in1008.1 mb 0.00 in0.0 mm 0.00 in0.0 mm 0.00 in0.0 mm
11:45 PM 45.3°F7.4°C 28.7°F-1.8°C 52% 5.8 mph E9.3 kmh E 13.6 mph21.9 kmh 29.80 in1009.1 mb 0.00 in0.0 mm 0.00 in0.0 mm 0.00 in0.0 mm